METAR AND TAF INFORMATION
METAR FOR KPIT
KPIT 260251Z 18005KT 10SM FEW120 SCT250 06/M06 A2989 RMK AO2 SLP139 T00561056 58006
KPIT 260151Z 18005KT 10SM SCT120 BKN250 06/M06 A2990 RMK AO2 SLP145 T00561061
KPIT 260051Z 16004KT 10SM FEW150 BKN250 06/M07 A2991 RMK AO2 SLP148 T00561067
KPIT 260235Z 2603/2706 18005KT P6SM SCT120 BKN250 WS020/25040KT
FM260800 23003KT P6SM SCT090
FM261800 18005KT P6SM SCT050
FM270200 16007KT P6SM SCT150

 AIRPORT MAP

 RUNWAY INFORMATION
Runway 10C Runway length 9708 ft Runway width 150 ft
Runway elevation 1139 ft Runway displaced threshold 0 ft Runway heading 92
Runway 28C Runway length 9708 ft Runway width 150 ft
Runway elevation 1134 ft Runway displaced threshold 0 ft Runway heading 272
Runway 10L Runway length 10502 ft Runway width 150 ft
Runway elevation 1204 ft Runway displaced threshold 0 ft Runway heading 92
Runway 28R Runway length 10502 ft Runway width 150 ft
Runway elevation 1175 ft Runway displaced threshold 0 ft Runway heading 272
Runway 10R Runway length 11500 ft Runway width 200 ft
Runway elevation 1135 ft Runway displaced threshold 0 ft Runway heading 92
Runway 28L Runway length 11500 ft Runway width 200 ft
Runway elevation 1123 ft Runway displaced threshold 0 ft Runway heading 272
Runway 14 Runway length 8101 ft Runway width 150 ft
Runway elevation 1148 ft Runway displaced threshold 0 ft Runway heading 136
Runway 32 Runway length 8101 ft Runway width 150 ft
Runway elevation 1114 ft Runway displaced threshold 0 ft Runway heading 316

 AIRPORT FREQUENCIES
Type APP Name APP Frequency 120.875 MHZ
Type APP Name APP Frequency 36.08 MHZ
Type ATIS Name ATIS Frequency 127.25 MHZ
Type CLD Name CLNC DEL Frequency 126.75 MHZ
Type DEP Name DEP Frequency 118.65 MHZ
Type GND Name GND Frequency 121.9 MHZ
Type OPS Name ANG OPS Frequency 31.1 MHZ
Type POST Name PITT COMD Frequency 25.21 MHZ
Type RDO Name ALTOONA RD Frequency 112 MHZ
Type RMP Name RAMP CON Frequency 131.375 MHZ
Type TWR Name TWR Frequency 119.1 MHZ
Type UNIC Name UNICOM Frequency 122.95 MHZ

 AIRPORT NEAR NAVIGATION AIDS
Type VORTAC Name Montour Frequency 112000 KHZ

-